Terminal Aerodrome Forecast
Issued by NWS Wilmington, OH

Current Version | Previous Version | Text Only | Print | Product List | Glossary Off
Versions: 1 2 3 4 5 6 7 8 9 10 11 12 13 14 15 16 17 18 19 20

149
FTUS41 KILN 211140
TAFILN
TAF
KILN 211140Z 2112/2212 18005KT P6SM BKN020 OVC050
     FM211800 20010KT P6SM OVC015
     FM212300 19008KT P6SM VCSH OVC012
      TEMPO 2201/2203 3SM BR OVC008
     FM220600 18008KT P6SM SCT025 BKN100 OVC250 WS015/21045KT=

USA.gov is the U.S. government's official web portal to all federal, state and local government web resources and services.